Time;durP1;ratioP1;P1;durP2;ratioP2;P2;SDS_P1;SDS_P2;PMS_P1;PMS_P2;Temp;Humidity;BMP_temperature;BMP_pressure;BME280_temperature;BME280_humidity;BME280_pressure;Samples;Min_cycle;Max_cycle;Signal;HPM_P1;HPM_P2
2021/04/19 00:00:43;;;;;;;12.33;11.20;;;12.90;95.40;;;;;;5032393;28;20448;-76
2021/04/19 00:03:11;;;;;;;12.30;11.20;;;12.90;95.20;;;;;;5031677;28;20424;-76
2021/04/19 00:05:37;;;;;;;12.30;11.20;;;12.80;95.40;;;;;;5031544;28;20251;-76
2021/04/19 00:08:03;;;;;;;11.13;10.23;;;12.80;95.30;;;;;;5032325;28;20536;-76
2021/04/19 00:10:29;;;;;;;11.40;10.40;;;12.70;95.30;;;;;;5032340;28;20460;-76
2021/04/19 00:12:55;;;;;;;11.50;10.50;;;12.70;95.50;;;;;;5032505;28;20424;-77
2021/04/19 00:15:21;;;;;;;12.50;11.40;;;12.70;95.70;;;;;;5032252;28;20417;-79
2021/04/19 00:17:48;;;;;;;12.73;11.53;;;12.70;95.80;;;;;;5033022;28;20500;-76
2021/04/19 00:20:15;;;;;;;12.43;11.30;;;12.70;95.90;;;;;;5032223;28;20570;-75
2021/04/19 00:22:41;;;;;;;11.77;10.77;;;12.60;96.00;;;;;;5031499;28;20440;-75
2021/04/19 00:25:08;;;;;;;11.50;10.50;;;12.60;96.30;;;;;;5033008;28;20474;-75
2021/04/19 00:27:35;;;;;;;12.10;11.10;;;12.60;96.50;;;;;;5032139;28;20195;-76
2021/04/19 00:30:01;;;;;;;12.00;10.90;;;12.60;96.70;;;;;;5032762;28;20470;-75
2021/04/19 00:32:27;;;;;;;11.87;10.87;;;12.60;96.90;;;;;;5031974;28;20409;-76
2021/04/19 00:34:53;;;;;;;11.43;10.43;;;12.60;97.10;;;;;;5030773;28;20810;-76
2021/04/19 00:37:19;;;;;;;12.10;11.10;;;12.60;97.10;;;;;;5032569;28;20535;-79
2021/04/19 00:39:45;;;;;;;12.07;11.00;;;12.60;97.30;;;;;;5032136;28;20178;-77
2021/04/19 00:42:11;;;;;;;11.70;10.80;;;12.70;97.30;;;;;;5031493;28;20862;-75
2021/04/19 00:44:37;;;;;;;12.70;11.53;;;12.60;97.50;;;;;;5031561;28;20170;-76
2021/04/19 00:47:04;;;;;;;11.37;10.37;;;12.70;97.60;;;;;;5031449;28;20413;-75
2021/04/19 00:49:29;;;;;;;10.90;9.83;;;12.70;97.40;;;;;;5031811;28;20460;-76
2021/04/19 00:51:56;;;;;;;12.40;11.20;;;12.70;97.50;;;;;;5032339;28;20417;-75
2021/04/19 00:54:24;;;;;;;12.43;11.33;;;12.70;97.50;;;;;;5031583;28;20178;-79
2021/04/19 00:56:52;;;;;;;11.90;10.80;;;12.60;97.50;;;;;;5032628;28;20424;-76
2021/04/19 00:59:18;;;;;;;12.30;11.30;;;12.60;97.70;;;;;;5032452;28;20437;-76
2021/04/19 01:01:45;;;;;;;14.23;12.73;;;12.60;97.60;;;;;;5030858;28;20435;-76
2021/04/19 01:04:11;;;;;;;13.80;12.60;;;12.70;97.60;;;;;;5031992;28;20977;-75
2021/04/19 01:06:37;;;;;;;12.90;11.70;;;12.70;97.50;;;;;;5015635;28;20418;-76
2021/04/19 01:09:06;;;;;;;14.00;12.70;;;12.70;97.60;;;;;;5015288;28;20229;-76
2021/04/19 01:11:32;;;;;;;15.30;13.80;;;12.70;97.40;;;;;;5031015;28;20939;-76
2021/04/19 01:13:58;;;;;;;14.97;13.60;;;12.70;97.50;;;;;;5030431;28;20425;-76
2021/04/19 01:16:24;;;;;;;13.73;12.53;;;12.70;97.50;;;;;;5031188;28;20200;-79
2021/04/19 01:18:49;;;;;;;14.83;13.50;;;12.70;97.50;;;;;;5030544;28;20265;-76
2021/04/19 01:21:15;;;;;;;13.80;12.47;;;12.70;97.50;;;;;;5032099;28;20175;-76
2021/04/19 01:23:41;;;;;;;14.33;13.03;;;12.70;97.70;;;;;;5031126;28;20178;-76
2021/04/19 01:26:07;;;;;;;14.57;13.27;;;12.70;97.60;;;;;;5031160;28;20173;-75
2021/04/19 01:28:32;;;;;;;15.40;14.00;;;12.70;97.70;;;;;;5030943;28;20301;-76
2021/04/19 01:30:58;;;;;;;15.23;13.83;;;12.70;97.90;;;;;;5031298;28;20193;-76
2021/04/19 01:33:24;;;;;;;14.90;13.60;;;12.70;98.30;;;;;;5030377;28;20185;-79
2021/04/19 01:35:51;;;;;;;14.70;13.47;;;12.70;97.90;;;;;;5031506;28;20456;-76
2021/04/19 01:38:21;;;;;;;15.60;14.13;;;12.70;98.00;;;;;;5031360;28;20421;-76
2021/04/19 01:40:49;;;;;;;15.50;14.10;;;12.50;98.00;;;;;;5031080;28;20413;-76
2021/04/19 01:43:16;;;;;;;13.97;12.77;;;12.50;98.40;;;;;;5031118;28;20751;-76
2021/04/19 01:45:42;;;;;;;14.80;13.40;;;12.50;98.60;;;;;;5032134;28;21364;-76
2021/04/19 01:48:08;;;;;;;15.10;13.70;;;12.50;98.60;;;;;;5036141;28;20449;-76
2021/04/19 01:50:34;;;;;;;15.20;13.80;;;12.50;98.80;;;;;;5035078;28;20554;-76
2021/04/19 01:53:01;;;;;;;14.97;13.60;;;12.40;99.10;;;;;;5034820;28;20900;-76
2021/04/19 01:55:30;;;;;;;15.73;14.30;;;12.30;99.60;;;;;;5034915;28;20170;-80
2021/04/19 01:58:00;;;;;;;15.77;14.30;;;12.20;99.90;;;;;;5035273;28;20479;-76
2021/04/19 02:00:28;;;;;;;15.90;14.40;;;12.20;99.90;;;;;;5034767;28;20781;-80
2021/04/19 02:03:06;;;;;;;16.57;14.97;;;11.80;99.90;;;;;;5034763;28;20772;-76
2021/04/19 02:06:02;;;;;;;17.00;15.30;;;11.70;99.90;;;;;;5034197;28;20427;-76
2021/04/19 02:08:40;;;;;;;15.03;13.63;;;11.60;99.90;;;;;;5034323;28;20459;-80
2021/04/19 02:11:24;;;;;;;17.10;15.40;;;11.80;99.90;;;;;;5035492;28;20448;-76
2021/04/19 02:14:05;;;;;;;16.93;15.30;;;11.90;99.90;;;;;;5034156;28;20418;-76
2021/04/19 02:16:39;;;;;;;16.33;14.83;;;12.00;99.90;;;;;;5033949;28;20421;-76
2021/04/19 02:19:18;;;;;;;18.10;16.40;;;12.10;99.90;;;;;;5035006;28;20908;-77
2021/04/19 02:21:46;;;;;;;19.77;17.77;;;12.10;99.90;;;;;;5024181;28;20413;-76
2021/04/19 02:24:16;;;;;;;18.53;16.77;;;12.20;99.90;;;;;;5033331;28;20463;-77
2021/04/19 02:27:07;;;;;;;17.00;15.43;;;12.20;99.90;;;;;;5033970;28;20436;-76
2021/04/19 02:29:53;;;;;;;17.60;16.00;;;12.10;99.90;;;;;;5018220;28;20463;-76
2021/04/19 02:32:27;;;;;;;18.97;17.27;;;12.10;99.90;;;;;;5034377;28;20479;-76
2021/04/19 02:34:56;;;;;;;17.57;15.97;;;12.20;99.90;;;;;;5034109;28;20545;-78
2021/04/19 02:37:25;;;;;;;17.67;16.07;;;12.20;99.90;;;;;;5033688;28;20763;-77
2021/04/19 02:39:52;;;;;;;17.43;15.70;;;12.20;99.90;;;;;;5032808;28;21040;-76
2021/04/19 02:42:18;;;;;;;17.37;15.70;;;12.30;99.90;;;;;;5034165;28;20494;-76
2021/04/19 02:44:51;;;;;;;18.80;17.00;;;12.30;99.90;;;;;;5033546;28;20435;-76
2021/04/19 02:47:21;;;;;;;17.80;16.20;;;12.30;99.90;;;;;;5034139;28;20677;-76
2021/04/19 02:49:48;;;;;;;18.20;16.60;;;12.30;99.90;;;;;;5033641;28;20467;-76
2021/04/19 02:52:15;;;;;;;19.40;17.60;;;12.30;99.90;;;;;;5034011;28;20780;-76
2021/04/19 02:54:43;;;;;;;17.97;16.27;;;12.10;99.90;;;;;;5032084;28;20460;-76
2021/04/19 02:57:26;;;;;;;20.90;18.90;;;11.90;99.90;;;;;;5034530;28;20428;-76
2021/04/19 02:59:53;;;;;;;19.20;17.30;;;11.90;99.90;;;;;;5033351;28;20421;-76
2021/04/19 03:02:24;;;;;;;18.67;16.87;;;12.00;99.90;;;;;;5033787;28;20425;-76
2021/04/19 03:04:51;;;;;;;18.47;16.67;;;12.00;99.90;;;;;;5033461;28;20416;-76
2021/04/19 03:07:19;;;;;;;19.57;17.67;;;12.00;99.90;;;;;;5034072;28;20422;-75
2021/04/19 03:09:51;;;;;;;19.13;17.40;;;12.00;99.90;;;;;;5033119;28;20460;-76
2021/04/19 03:12:21;;;;;;;20.20;18.20;;;12.10;99.90;;;;;;5034502;28;20494;-76
2021/04/19 03:15:01;;;;;;;18.70;16.83;;;12.10;99.90;;;;;;5033262;28;21237;-76
2021/04/19 03:17:28;;;;;;;19.13;17.40;;;12.20;99.90;;;;;;5033040;28;20447;-76
2021/04/19 03:20:07;;;;;;;20.33;18.13;;;12.20;99.90;;;;;;5033127;28;20433;-76
2021/04/19 03:22:36;;;;;;;19.17;17.37;;;12.20;99.90;;;;;;5033338;28;20465;-76
2021/04/19 03:25:06;;;;;;;18.80;16.90;;;12.20;99.90;;;;;;5034127;28;20454;-76
2021/04/19 03:27:33;;;;;;;19.93;17.90;;;12.20;99.90;;;;;;5033264;28;20425;-80
2021/04/19 03:30:00;;;;;;;19.00;17.23;;;12.20;99.90;;;;;;5034055;28;20448;-76
2021/04/19 03:32:32;;;;;;;20.40;18.30;;;12.20;99.90;;;;;;5033264;28;20762;-76
2021/04/19 03:35:03;;;;;;;19.67;17.57;;;12.10;99.90;;;;;;5034120;28;20486;-76
2021/04/19 03:37:33;;;;;;;18.60;16.60;;;12.20;99.90;;;;;;5033160;28;20421;-79
2021/04/19 03:40:28;;;;;;;19.23;17.33;;;12.30;99.90;;;;;;5033648;28;20834;-76
2021/04/19 03:42:59;;;;;;;19.70;17.70;;;12.30;99.90;;;;;;5032758;28;20438;-76
2021/04/19 03:45:26;;;;;;;20.67;18.57;;;12.30;99.90;;;;;;5032666;28;20424;-76
2021/04/19 03:47:55;;;;;;;21.33;19.10;;;12.30;99.90;;;;;;5032593;28;20552;-76
2021/04/19 03:50:22;;;;;;;19.33;17.10;;;12.40;99.90;;;;;;5033055;28;20413;-76
2021/04/19 03:52:50;;;;;;;19.73;17.83;;;12.40;99.90;;;;;;5032137;28;20432;-76
2021/04/19 03:55:17;;;;;;;20.23;17.80;;;12.40;99.90;;;;;;5032831;28;20418;-76
2021/04/19 03:57:46;;;;;;;21.37;18.77;;;12.40;99.90;;;;;;5032095;28;20432;-76
2021/04/19 04:00:16;;;;;;;21.67;19.47;;;12.40;99.90;;;;;;5033303;28;20760;-76
2021/04/19 04:02:45;;;;;;;20.33;18.33;;;12.40;99.90;;;;;;5022809;28;20511;-75
2021/04/19 04:05:13;;;;;;;21.13;18.97;;;12.40;99.90;;;;;;5031605;28;20505;-76
2021/04/19 04:07:41;;;;;;;19.97;17.93;;;12.40;99.90;;;;;;5012347;28;20416;-76
2021/04/19 04:10:08;;;;;;;19.67;17.50;;;12.40;99.90;;;;;;5031648;28;20493;-76
2021/04/19 04:12:35;;;;;;;18.67;16.87;;;12.40;99.90;;;;;;5023740;28;20439;-80
2021/04/19 04:15:02;;;;;;;20.60;18.70;;;12.40;99.90;;;;;;5032706;28;20766;-76
2021/04/19 04:17:28;;;;;;;20.13;18.17;;;12.40;99.90;;;;;;5032659;28;20528;-76
2021/04/19 04:19:54;;;;;;;20.47;18.57;;;12.40;99.90;;;;;;5031631;28;21124;-76
2021/04/19 04:22:20;;;;;;;19.10;17.30;;;12.40;99.90;;;;;;5032654;28;20413;-77
2021/04/19 04:24:46;;;;;;;20.00;18.00;;;12.40;99.90;;;;;;5015414;28;20182;-77
2021/04/19 04:27:12;;;;;;;18.80;17.10;;;12.40;99.90;;;;;;5031070;28;20417;-77
2021/04/19 04:29:38;;;;;;;19.83;18.00;;;12.40;99.90;;;;;;5031721;28;20825;-77
2021/04/19 04:32:05;;;;;;;20.23;18.37;;;12.40;99.90;;;;;;5032301;28;20426;-85
2021/04/19 04:34:31;;;;;;;19.03;17.17;;;12.40;99.90;;;;;;5031469;28;20451;-76
2021/04/19 04:36:57;;;;;;;21.00;16.80;;;12.40;99.90;;;;;;5030141;28;20467;-76
2021/04/19 04:39:23;;;;;;;20.20;18.07;;;12.40;99.90;;;;;;5031655;28;20557;-75
2021/04/19 04:41:49;;;;;;;19.70;17.80;;;12.40;99.90;;;;;;5031306;28;20633;-76
2021/04/19 04:44:39;;;;;;;19.73;17.93;;;12.40;99.90;;;;;;5032103;28;20977;-76
2021/04/19 04:47:30;;;;;;;20.30;18.20;;;12.40;99.90;;;;;;5030777;28;20426;-76
2021/04/19 04:50:01;;;;;;;19.93;18.00;;;12.40;99.90;;;;;;5031343;28;20451;-85
2021/04/19 04:52:36;;;;;;;20.60;18.50;;;12.40;99.90;;;;;;5032886;28;20431;-87
2021/04/19 04:55:04;;;;;;;21.10;19.10;;;12.50;99.90;;;;;;5026947;28;20962;-77
2021/04/19 04:57:31;;;;;;;20.97;18.97;;;12.50;99.90;;;;;;5032138;28;20429;-77
2021/04/19 04:59:58;;;;;;;21.37;19.17;;;12.50;99.90;;;;;;5030830;28;20423;-78
2021/04/19 05:02:25;;;;;;;21.30;19.10;;;12.50;99.90;;;;;;5031542;28;20413;-77
2021/04/19 05:04:52;;;;;;;22.50;20.23;;;12.60;99.90;;;;;;5029781;28;20435;-78
2021/04/19 05:07:19;;;;;;;21.13;19.03;;;12.60;99.90;;;;;;5031737;28;20439;-78
2021/04/19 05:09:49;;;;;;;21.30;19.20;;;12.60;99.90;;;;;;5031044;28;20491;-78
2021/04/19 05:12:15;;;;;;;20.60;18.70;;;12.60;99.90;;;;;;5031742;28;20433;-78
2021/04/19 05:14:55;;;;;;;22.30;20.17;;;12.60;99.90;;;;;;5030591;28;20491;-78
2021/04/19 05:17:21;;;;;;;22.40;20.33;;;12.60;99.90;;;;;;5036226;28;20723;-82
2021/04/19 05:19:47;;;;;;;23.00;20.70;;;12.60;99.90;;;;;;5030923;28;20429;-83
2021/04/19 05:22:12;;;;;;;22.00;19.90;;;12.60;99.90;;;;;;5031632;28;20188;-83
2021/04/19 05:24:38;;;;;;;22.13;19.93;;;12.60;99.90;;;;;;5031438;28;20211;-81
2021/04/19 05:27:04;;;;;;;22.17;20.00;;;12.70;99.90;;;;;;5030189;28;20174;-83
2021/04/19 05:29:31;;;;;;;20.43;18.43;;;12.70;99.90;;;;;;5031779;28;20219;-82
2021/04/19 05:31:57;;;;;;;20.70;18.70;;;12.70;99.90;;;;;;5029547;28;20413;-82
2021/04/19 05:34:23;;;;;;;22.60;20.40;;;12.60;99.90;;;;;;5032011;28;20502;-84
2021/04/19 05:36:50;;;;;;;22.70;20.13;;;12.60;99.90;;;;;;5029763;28;20184;-83
2021/04/19 05:39:17;;;;;;;21.80;19.50;;;12.70;99.90;;;;;;5031434;28;20512;-84
2021/04/19 05:41:43;;;;;;;21.73;19.50;;;12.70;99.90;;;;;;5026933;28;20460;-83
2021/04/19 05:44:09;;;;;;;21.23;19.13;;;12.70;99.90;;;;;;5031179;28;20430;-83
2021/04/19 05:46:35;;;;;;;20.87;18.80;;;12.70;99.90;;;;;;5031638;28;20426;-83
2021/04/19 05:49:01;;;;;;;23.30;20.03;;;12.80;99.90;;;;;;5031085;28;20460;-83
2021/04/19 05:51:34;;;;;;;20.70;18.63;;;12.80;99.90;;;;;;5030075;28;20914;-83
2021/04/19 05:54:00;;;;;;;21.60;19.57;;;12.80;99.90;;;;;;5030412;28;20460;-83
2021/04/19 05:56:35;;;;;;;23.87;21.47;;;12.80;99.90;;;;;;5031481;28;20428;-83
2021/04/19 05:59:29;;;;;;;21.03;19.03;;;12.80;99.90;;;;;;5029059;28;20346;-83
2021/04/19 06:01:57;;;;;;;19.67;17.73;;;12.90;99.90;;;;;;5029539;28;20752;-83
2021/04/19 06:04:35;;;;;;;19.73;17.83;;;12.90;99.90;;;;;;5031853;28;20408;-83
2021/04/19 06:07:22;;;;;;;21.23;19.23;;;12.90;99.90;;;;;;5030235;28;21074;-83
2021/04/19 06:10:06;;;;;;;16.83;15.17;;;12.90;99.90;;;;;;5030684;28;20456;-83
2021/04/19 06:12:35;;;;;;;19.33;17.30;;;12.90;99.90;;;;;;5031152;28;20524;-82
2021/04/19 06:15:08;;;;;;;17.63;15.93;;;12.90;99.90;;;;;;5030114;28;20423;-83
2021/04/19 06:17:35;;;;;;;16.90;15.40;;;12.80;99.90;;;;;;5030982;28;20413;-84
2021/04/19 06:20:01;;;;;;;18.00;16.30;;;12.80;99.90;;;;;;5043294;28;20430;-84
2021/04/19 06:22:27;;;;;;;18.23;16.43;;;12.90;99.90;;;;;;5030708;28;20424;-82
2021/04/19 06:24:53;;;;;;;17.37;15.77;;;12.90;99.90;;;;;;5029069;28;20185;-83
2021/04/19 06:27:23;;;;;;;18.00;16.30;;;12.90;99.90;;;;;;5022206;28;20836;-83
2021/04/19 06:29:50;;;;;;;16.80;15.23;;;12.90;99.90;;;;;;5028386;28;20494;-83
2021/04/19 06:32:17;;;;;;;16.97;15.37;;;12.90;99.90;;;;;;5029554;28;20417;-83
2021/04/19 06:34:43;;;;;;;14.83;13.53;;;12.90;99.90;;;;;;5033522;28;20481;-82
2021/04/19 06:37:09;;;;;;;15.03;13.73;;;12.90;99.90;;;;;;5034147;28;20903;-83
2021/04/19 06:39:35;;;;;;;14.93;13.53;;;13.00;99.90;;;;;;5035078;28;20181;-83
2021/04/19 06:42:04;;;;;;;13.70;12.40;;;13.00;99.90;;;;;;5034436;28;21030;-82
2021/04/19 06:44:30;;;;;;;15.33;13.80;;;13.00;99.90;;;;;;5032916;28;20774;-84
2021/04/19 06:46:58;;;;;;;12.77;11.67;;;12.90;99.90;;;;;;5016391;28;20421;-82
2021/04/19 06:49:26;;;;;;;13.30;12.10;;;13.00;99.90;;;;;;5029236;28;20487;-84
2021/04/19 06:51:55;;;;;;;13.47;12.37;;;13.00;99.90;;;;;;5023334;28;20988;-83
2021/04/19 06:54:21;;;;;;;12.23;11.17;;;13.00;99.90;;;;;;5032373;28;20487;-82
2021/04/19 06:56:49;;;;;;;12.33;11.20;;;13.00;99.90;;;;;;5030948;28;20434;-82
2021/04/19 06:59:19;;;;;;;11.90;10.80;;;13.00;99.90;;;;;;5033557;28;20750;-82
2021/04/19 07:01:49;;;;;;;11.10;10.17;;;13.00;99.90;;;;;;5029483;28;22042;-86
2021/04/19 07:04:19;;;;;;;12.43;11.23;;;13.10;99.90;;;;;;5027984;28;20417;-84
2021/04/19 07:06:47;;;;;;;12.03;10.83;;;13.20;99.90;;;;;;5043874;28;20424;-88
2021/04/19 07:09:27;;;;;;;10.90;10.03;;;13.20;99.90;;;;;;5025118;28;20475;-84
2021/04/19 07:11:55;;;;;;;10.97;9.97;;;13.30;99.90;;;;;;5029126;28;20504;-83
2021/04/19 07:14:21;;;;;;;10.50;9.53;;;13.40;99.90;;;;;;5033790;28;20950;-83
2021/04/19 07:16:48;;;;;;;9.50;8.70;;;13.50;99.90;;;;;;5030759;28;20483;-87
2021/04/19 07:19:14;;;;;;;9.20;8.40;;;13.50;99.90;;;;;;5032936;28;20473;-82
2021/04/19 07:21:40;;;;;;;8.47;7.83;;;13.60;99.90;;;;;;5032792;28;20459;-82
2021/04/19 07:24:06;;;;;;;8.57;7.87;;;13.60;99.70;;;;;;5030597;28;20974;-87
2021/04/19 07:26:32;;;;;;;8.50;7.90;;;13.70;99.50;;;;;;5031830;28;20437;-87
2021/04/19 07:28:59;;;;;;;7.47;6.87;;;13.70;97.60;;;;;;5022666;28;20468;-86
2021/04/19 07:31:25;;;;;;;7.70;7.10;;;13.80;97.70;;;;;;5031466;28;20642;-85
2021/04/19 07:33:51;;;;;;;8.30;7.60;;;13.90;98.40;;;;;;5029403;28;20453;-83
2021/04/19 07:36:28;;;;;;;6.60;6.10;;;14.00;97.40;;;;;;5032241;28;20505;-83
2021/04/19 07:39:00;;;;;;;6.67;6.17;;;14.10;97.20;;;;;;5041178;28;20466;-82
2021/04/19 07:41:47;;;;;;;5.53;5.13;;;14.10;96.40;;;;;;5028379;28;20468;-82
2021/04/19 07:44:41;;;;;;;5.63;5.23;;;14.10;96.10;;;;;;5028831;28;20501;-81
2021/04/19 07:47:32;;;;;;;5.67;5.17;;;14.30;95.90;;;;;;5026258;28;20428;-80
2021/04/19 07:50:02;;;;;;;3.67;3.47;;;14.30;96.00;;;;;;5027195;28;20470;-80
2021/04/19 07:52:30;;;;;;;3.60;3.40;;;14.40;94.80;;;;;;5030384;28;20956;-83
2021/04/19 07:55:24;;;;;;;4.43;4.13;;;14.40;93.20;;;;;;5029993;28;20519;-82
2021/04/19 07:57:51;;;;;;;4.30;4.00;;;14.30;93.50;;;;;;5028311;28;20442;-84
2021/04/19 08:00:36;;;;;;;3.50;3.30;;;14.20;93.30;;;;;;5030732;28;20962;-84
2021/04/19 08:03:11;;;;;;;7.80;5.83;;;14.20;93.40;;;;;;5029204;28;20495;-84
2021/04/19 08:05:55;;;;;;;316.67;218.27;;;14.20;94.40;;;;;;5031453;28;20857;-83
2021/04/19 08:08:34;;;;;;;582.33;393.80;;;14.30;95.80;;;;;;5024761;28;20541;-81
2021/04/19 08:11:14;;;;;;;228.90;157.23;;;14.50;94.60;;;;;;5043584;28;20432;-83
2021/04/19 08:13:41;;;;;;;14.23;11.93;;;14.70;94.30;;;;;;5029908;28;20413;-80
2021/04/19 08:16:19;;;;;;;5.27;4.70;;;14.80;93.80;;;;;;5031312;28;21154;-83
2021/04/19 08:18:45;;;;;;;4.57;4.27;;;14.80;93.50;;;;;;5031782;28;20498;-83
2021/04/19 08:21:12;;;;;;;5.27;4.93;;;14.90;94.80;;;;;;5030452;28;20440;-84
2021/04/19 08:23:43;;;;;;;4.57;4.27;;;15.00;93.50;;;;;;5030265;28;20804;-85
2021/04/19 08:26:09;;;;;;;4.80;4.60;;;15.10;92.90;;;;;;5029005;28;20475;-82
2021/04/19 08:28:47;;;;;;;4.60;4.30;;;15.20;93.20;;;;;;5032188;28;20475;-82
2021/04/19 08:31:15;;;;;;;4.50;4.20;;;15.40;92.70;;;;;;5031478;28;20562;-79
2021/04/19 08:33:45;;;;;;;4.60;4.30;;;15.40;93.00;;;;;;5031226;28;20825;-80
2021/04/19 08:36:14;;;;;;;4.87;4.57;;;15.50;92.00;;;;;;5031442;28;20406;-81
2021/04/19 08:38:41;;;;;;;3.97;3.67;;;15.60;91.40;;;;;;5032353;28;20437;-80
2021/04/19 08:41:08;;;;;;;6.00;5.60;;;15.60;90.20;;;;;;5030870;28;20426;-80
2021/04/19 08:43:35;;;;;;;4.80;4.60;;;15.60;90.60;;;;;;5030456;28;20993;-82
2021/04/19 08:46:02;;;;;;;4.30;4.10;;;15.70;89.40;;;;;;5030209;28;20829;-79
2021/04/19 08:48:28;;;;;;;4.00;3.80;;;15.70;88.50;;;;;;5030759;28;20474;-76
2021/04/19 08:50:53;;;;;;;4.07;3.80;;;15.60;89.00;;;;;;5031126;28;20428;-78
2021/04/19 08:53:20;;;;;;;4.10;3.90;;;15.60;91.20;;;;;;5030939;28;20975;-89
2021/04/19 08:55:48;;;;;;;4.60;4.30;;;15.50;91.20;;;;;;5030730;28;20220;-89
2021/04/19 08:58:16;;;;;;;72.07;46.07;;;15.50;91.70;;;;;;5031266;28;20462;-91
2021/04/19 09:01:06;;;;;;;87.03;58.33;;;15.50;92.00;;;;;;5030498;28;20426;-87
2021/04/19 09:03:32;;;;;;;6.23;5.70;;;15.50;92.90;;;;;;5038092;28;20518;-94
2021/04/19 09:06:13;;;;;;;3.90;3.60;;;15.40;91.90;;;;;;5030023;28;20447;-92
2021/04/19 09:08:39;;;;;;;4.63;4.27;;;15.50;92.50;;;;;;5031186;28;20463;-95
2021/04/19 09:11:09;;;;;;;4.47;4.23;;;15.50;91.50;;;;;;5031605;28;20418;-93
2021/04/19 09:13:44;;;;;;;3.90;3.70;;;15.60;92.40;;;;;;5027882;28;20182;-93
2021/04/19 09:16:13;;;;;;;4.87;4.57;;;15.80;92.50;;;;;;5030725;28;20428;-93
2021/04/19 09:18:41;;;;;;;4.30;4.10;;;15.90;92.80;;;;;;5030645;28;20508;-94
2021/04/19 09:21:08;;;;;;;4.90;4.60;;;16.00;91.70;;;;;;5030700;28;20425;-96
2021/04/19 09:23:38;;;;;;;8.10;7.50;;;16.10;91.80;;;;;;5015147;28;20423;-94
2021/04/19 09:26:04;;;;;;;5.33;4.83;;;16.20;92.50;;;;;;5019857;28;20426;-94
2021/04/19 09:28:41;;;;;;;4.60;4.20;;;16.30;93.40;;;;;;5026315;28;20459;-93
2021/04/19 09:31:11;;;;;;;7.43;6.93;;;16.60;92.60;;;;;;5039812;28;20220;-95
2021/04/19 09:33:39;;;;;;;4.80;4.50;;;16.90;91.20;;;;;;5032490;28;20551;-94
2021/04/19 09:36:05;;;;;;;5.30;4.83;;;17.10;91.00;;;;;;5031311;28;20494;-92
2021/04/19 09:38:37;;;;;;;7.23;6.73;;;17.20;90.50;;;;;;5032719;28;20444;-95
2021/04/19 09:41:08;;;;;;;20.30;18.20;;;17.20;86.60;;;;;;5026178;28;20456;-92
2021/04/19 09:43:40;;;;;;;26.03;19.77;;;17.10;86.30;;;;;;5032156;28;20409;-88
2021/04/19 09:46:08;;;;;;;6.53;6.03;;;17.20;85.10;;;;;;5030432;28;20428;-93
2021/04/19 09:48:42;;;;;;;5.03;4.63;;;17.30;90.50;;;;;;5026507;28;20460;-94
2021/04/19 09:51:19;;;;;;;7.70;7.30;;;17.50;90.30;;;;;;5017957;28;20414;-83
2021/04/19 09:54:25;;;;;;;5.60;5.10;;;17.80;88.70;;;;;;5031900;28;20470;-94
2021/04/19 10:00:39;;;;;;;7.40;6.80;;;18.40;86.70;;;;;;5025560;28;20413;-94
2021/04/19 10:15:36;;;;;;;6.27;5.77;;;18.10;77.90;;;;;;5008474;28;20483;-96
2021/04/19 10:29:29;;;;;;;;;;;;;;;;;;;;;
2021/04/19 10:32:29;;;;;;;6.37;5.87;;;17.10;83.50;;;;;;5079800;28;20442;-96
2021/04/19 10:35:31;;;;;;;7.47;6.73;;;16.80;83.90;;;;;;4988157;28;20522;-96
2021/04/19 10:38:15;;;;;;;7.30;6.63;;;16.80;82.40;;;;;;5058493;28;20450;-96
2021/04/19 10:40:58;;;;;;;7.17;6.57;;;16.60;80.80;;;;;;5060247;28;20402;-94
2021/04/19 10:43:35;;;;;;;10.17;9.00;;;16.40;81.80;;;;;;5042984;28;20832;-93
2021/04/19 10:49:58;;;;;;;8.90;8.20;;;15.90;86.00;;;;;;5026564;28;20474;-88
2021/04/19 10:52:24;;;;;;;11.80;10.80;;;15.90;87.60;;;;;;5073763;28;20411;-88
2021/04/19 10:54:50;;;;;;;9.37;8.50;;;15.80;87.10;;;;;;5075385;28;20171;-88
2021/04/19 10:57:26;;;;;;;9.50;8.70;;;15.70;87.40;;;;;;5072317;28;20786;-89
2021/04/19 10:59:57;;;;;;;402.33;302.27;;;15.80;89.20;;;;;;5072571;28;20184;-88
2021/04/19 11:02:25;;;;;;;60.03;47.87;;;15.80;90.30;;;;;;5038170;28;21119;-90
2021/04/19 11:04:51;;;;;;;10.30;9.40;;;15.90;90.20;;;;;;5070825;28;20416;-88
2021/04/19 11:07:35;;;;;;;8.77;7.97;;;16.00;89.80;;;;;;5064924;28;20632;-84
2021/04/19 11:10:17;;;;;;;12.47;8.50;;;16.00;87.10;;;;;;5047651;28;20445;-85
2021/04/19 11:13:13;;;;;;;12.20;10.90;;;16.40;99.90;;;;;;5068335;28;20437;-83
2021/04/19 11:15:46;;;;;;;16.77;11.17;;;17.10;99.90;;;;;;5039239;28;20426;-83
2021/04/19 11:18:28;;;;;;;12.87;11.77;;;17.80;99.90;;;;;;5073120;28;20441;-84
2021/04/19 11:20:56;;;;;;;11.87;10.30;;;18.30;96.80;;;;;;5074129;28;20404;-84
2021/04/19 11:23:29;;;;;;;12.37;10.93;;;18.70;94.50;;;;;;5055869;28;20419;-84
2021/04/19 11:25:58;;;;;;;10.97;8.67;;;18.90;93.40;;;;;;5073968;28;20415;-84
2021/04/19 11:28:31;;;;;;;11.33;10.33;;;19.30;92.00;;;;;;5054085;28;20423;-85
2021/04/19 11:31:20;;;;;;;8.73;7.83;;;19.60;91.10;;;;;;5052839;28;20467;-86
2021/04/19 11:33:50;;;;;;;9.43;8.63;;;19.90;88.10;;;;;;5053465;28;20392;-83
2021/04/19 11:36:16;;;;;;;9.60;8.07;;;20.00;84.90;;;;;;5035251;28;20416;-84
2021/04/19 11:38:42;;;;;;;9.03;8.13;;;20.00;82.40;;;;;;5053778;28;20495;-84
2021/04/19 11:41:13;;;;;;;10.40;9.70;;;19.00;69.50;;;;;;5053034;28;20817;-81
2021/04/19 11:43:50;;;;;;;9.00;8.20;;;18.70;71.80;;;;;;5053611;28;20891;-82
2021/04/19 11:46:17;;;;;;;9.98;9.18;;;18.90;76.20;;;;;;5051756;28;20411;-83
2021/04/19 11:48:48;;;;;;;74.20;66.47;;;18.90;74.00;;;;;;5039490;28;20280;-84
2021/04/19 11:51:17;;;;;;;59.67;47.63;;;18.80;73.40;;;;;;5041694;28;20483;-85
2021/04/19 11:53:45;;;;;;;28.70;25.60;;;18.60;74.60;;;;;;5053305;28;20820;-84
2021/04/19 11:56:12;;;;;;;9.47;8.57;;;18.50;73.50;;;;;;5033963;28;20444;-85
2021/04/19 11:58:45;;;;;;;8.60;7.93;;;18.40;73.60;;;;;;5034328;28;20915;-84
2021/04/19 12:01:14;;;;;;;8.20;7.50;;;18.30;73.20;;;;;;5031350;28;20474;-83
2021/04/19 12:03:43;;;;;;;8.23;7.57;;;18.20;71.00;;;;;;5031046;28;20427;-83
2021/04/19 12:06:11;;;;;;;8.00;7.40;;;18.10;70.30;;;;;;5030938;28;20813;-83
2021/04/19 12:08:45;;;;;;;8.20;7.60;;;18.00;69.80;;;;;;5032470;28;20506;-83
2021/04/19 12:11:13;;;;;;;8.83;8.23;;;17.90;69.40;;;;;;5029319;28;20419;-84
2021/04/19 12:13:39;;;;;;;10.20;9.40;;;17.80;68.80;;;;;;5041168;28;20987;-83
2021/04/19 12:16:05;;;;;;;8.20;7.60;;;17.80;69.10;;;;;;5050405;28;20777;-84
2021/04/19 12:18:33;;;;;;;8.60;8.00;;;17.80;70.50;;;;;;5031808;28;20520;-83
2021/04/19 12:21:00;;;;;;;9.73;9.03;;;17.70;71.70;;;;;;5047366;28;20424;-82
2021/04/19 12:23:26;;;;;;;8.57;7.87;;;17.70;70.00;;;;;;5012402;28;20911;-83
2021/04/19 12:25:53;;;;;;;8.90;8.33;;;17.20;66.70;;;;;;5044810;28;20474;-83
2021/04/19 12:28:20;;;;;;;8.30;7.50;;;16.80;67.80;;;;;;5033541;28;21046;-83
2021/04/19 12:30:46;;;;;;;8.33;7.73;;;16.80;71.20;;;;;;5067753;28;20431;-83
2021/04/19 12:33:13;;;;;;;9.10;8.30;;;16.80;74.30;;;;;;5071125;28;20956;-83
2021/04/19 12:35:38;;;;;;;8.57;7.77;;;16.80;75.90;;;;;;5072621;28;20415;-82
2021/04/19 12:38:04;;;;;;;8.97;8.27;;;16.80;76.70;;;;;;5071592;28;20425;-84
2021/04/19 12:40:30;;;;;;;9.73;8.63;;;16.70;77.70;;;;;;5072200;28;20194;-83
2021/04/19 12:42:58;;;;;;;10.37;9.47;;;16.60;79.00;;;;;;5072561;28;20487;-83
2021/04/19 12:45:26;;;;;;;11.50;10.50;;;16.50;77.60;;;;;;5071444;28;20465;-83
2021/04/19 12:47:54;;;;;;;10.20;9.30;;;16.40;77.60;;;;;;5072567;28;20439;-83
2021/04/19 12:50:21;;;;;;;13.53;12.43;;;16.20;78.30;;;;;;5071699;28;20481;-83
2021/04/19 12:52:47;;;;;;;11.67;10.77;;;16.00;79.60;;;;;;5054583;28;20545;-83
2021/04/19 12:55:13;;;;;;;11.23;10.20;;;16.00;80.80;;;;;;5071367;28;20413;-84
2021/04/19 12:57:45;;;;;;;10.43;9.53;;;16.00;81.40;;;;;;5072540;28;20405;-83
2021/04/19 13:00:11;;;;;;;12.57;11.57;;;15.90;81.20;;;;;;5053576;28;20424;-83
2021/04/19 13:02:37;;;;;;;9.53;8.73;;;15.90;80.80;;;;;;5054182;28;20973;-83
2021/04/19 13:05:03;;;;;;;12.10;11.10;;;15.90;80.80;;;;;;5071570;28;20409;-84
2021/04/19 13:07:29;;;;;;;10.33;9.23;;;15.90;82.30;;;;;;5072278;28;20304;-83
2021/04/19 13:09:54;;;;;;;10.27;9.37;;;15.90;81.90;;;;;;5072150;28;20539;-83
2021/04/19 13:12:22;;;;;;;12.13;11.03;;;15.90;83.10;;;;;;5053310;28;21006;-83
2021/04/19 13:14:48;;;;;;;14.23;12.83;;;15.90;82.20;;;;;;5037490;28;20194;-83
2021/04/19 13:17:13;;;;;;;11.40;10.30;;;15.90;82.60;;;;;;5071148;28;20412;-82
2021/04/19 13:19:39;;;;;;;12.30;11.30;;;15.90;83.70;;;;;;5037633;28;20301;-84